sensor_id;sensor_type;location;lat;lon;timestamp;temperature;humidity
15355;DHT22;7777;52.254;9.618;2022-10-16T00:01:27;14.30;99.90
15355;DHT22;7777;52.254;9.618;2022-10-16T00:03:55;14.20;99.90
15355;DHT22;7777;52.254;9.618;2022-10-16T00:06:22;14.20;99.90
15355;DHT22;7777;52.254;9.618;2022-10-16T00:08:49;14.20;99.90
15355;DHT22;7777;52.254;9.618;2022-10-16T00:11:20;14.10;99.90
15355;DHT22;7777;52.254;9.618;2022-10-16T00:13:49;14.10;99.90
15355;DHT22;7777;52.254;9.618;2022-10-16T00:16:17;14.10;99.90
15355;DHT22;7777;52.254;9.618;2022-10-16T00:18:43;14.10;99.90
15355;DHT22;7777;52.254;9.618;2022-10-16T00:21:12;14.10;99.90
15355;DHT22;7777;52.254;9.618;2022-10-16T00:23:40;14.10;99.90
15355;DHT22;7777;52.254;9.618;2022-10-16T00:26:12;14.00;99.90
15355;DHT22;7777;52.254;9.618;2022-10-16T00:28:39;14.00;99.90
15355;DHT22;7777;52.254;9.618;2022-10-16T00:31:07;14.00;99.90
15355;DHT22;7777;52.254;9.618;2022-10-16T00:33:35;14.00;99.90
15355;DHT22;7777;52.254;9.618;2022-10-16T00:36:02;13.90;99.90
15355;DHT22;7777;52.254;9.618;2022-10-16T00:38:29;13.90;99.90
15355;DHT22;7777;52.254;9.618;2022-10-16T00:40:54;13.90;99.90
15355;DHT22;7777;52.254;9.618;2022-10-16T00:49:14;13.90;99.90
15355;DHT22;7777;52.254;9.618;2022-10-16T00:51:52;13.90;99.90
15355;DHT22;7777;52.254;9.618;2022-10-16T00:54:30;13.90;99.90
15355;DHT22;7777;52.254;9.618;2022-10-16T00:57:00;14.00;99.90
15355;DHT22;7777;52.254;9.618;2022-10-16T00:59:34;13.90;99.90
15355;DHT22;7777;52.254;9.618;2022-10-16T01:02:04;14.00;99.90
15355;DHT22;7777;52.254;9.618;2022-10-16T01:04:56;14.00;99.90
15355;DHT22;7777;52.254;9.618;2022-10-16T01:10:31;14.00;99.90
15355;DHT22;7777;52.254;9.618;2022-10-16T01:13:20;14.10;99.90
15355;DHT22;7777;52.254;9.618;2022-10-16T01:18:42;14.10;99.90
15355;DHT22;7777;52.254;9.618;2022-10-16T01:21:18;14.10;99.90
15355;DHT22;7777;52.254;9.618;2022-10-16T01:32:17;14.20;99.90
15355;DHT22;7777;52.254;9.618;2022-10-16T01:38:32;14.20;99.90
15355;DHT22;7777;52.254;9.618;2022-10-16T01:41:24;14.30;99.90
15355;DHT22;7777;52.254;9.618;2022-10-16T01:44:19;14.20;99.90
15355;DHT22;7777;52.254;9.618;2022-10-16T01:46:50;14.30;99.90
15355;DHT22;7777;52.254;9.618;2022-10-16T01:49:18;14.20;99.90
15355;DHT22;7777;52.254;9.618;2022-10-16T01:51:48;14.20;99.90
15355;DHT22;7777;52.254;9.618;2022-10-16T01:54:16;14.20;99.90
15355;DHT22;7777;52.254;9.618;2022-10-16T01:56:45;14.20;99.90
15355;DHT22;7777;52.254;9.618;2022-10-16T01:59:16;14.10;99.90
15355;DHT22;7777;52.254;9.618;2022-10-16T02:01:48;14.10;99.90
15355;DHT22;7777;52.254;9.618;2022-10-16T02:07:03;14.10;99.90
15355;DHT22;7777;52.254;9.618;2022-10-16T02:09:30;14.10;99.90
15355;DHT22;7777;52.254;9.618;2022-10-16T02:11:57;14.10;99.90
15355;DHT22;7777;52.254;9.618;2022-10-16T02:14:25;14.10;99.90
15355;DHT22;7777;52.254;9.618;2022-10-16T02:16:51;14.00;99.90
15355;DHT22;7777;52.254;9.618;2022-10-16T02:19:18;14.00;99.90
15355;DHT22;7777;52.254;9.618;2022-10-16T02:32:58;13.90;99.90
15355;DHT22;7777;52.254;9.618;2022-10-16T02:35:27;13.90;99.90
15355;DHT22;7777;52.254;9.618;2022-10-16T02:37:54;13.80;99.90
15355;DHT22;7777;52.254;9.618;2022-10-16T02:40:21;13.80;99.90
15355;DHT22;7777;52.254;9.618;2022-10-16T02:42:50;13.80;99.90
15355;DHT22;7777;52.254;9.618;2022-10-16T02:45:17;13.80;99.90
15355;DHT22;7777;52.254;9.618;2022-10-16T02:47:43;13.70;99.90
15355;DHT22;7777;52.254;9.618;2022-10-16T02:50:09;13.70;99.90
15355;DHT22;7777;52.254;9.618;2022-10-16T02:52:35;13.70;99.90
15355;DHT22;7777;52.254;9.618;2022-10-16T02:55:00;13.70;99.90
15355;DHT22;7777;52.254;9.618;2022-10-16T02:57:26;13.70;99.90
15355;DHT22;7777;52.254;9.618;2022-10-16T02:59:52;13.60;99.90
15355;DHT22;7777;52.254;9.618;2022-10-16T03:02:18;13.60;99.90
15355;DHT22;7777;52.254;9.618;2022-10-16T03:04:44;13.60;99.90
15355;DHT22;7777;52.254;9.618;2022-10-16T03:07:09;13.50;99.90
15355;DHT22;7777;52.254;9.618;2022-10-16T03:09:35;13.50;99.90
15355;DHT22;7777;52.254;9.618;2022-10-16T03:12:01;13.50;99.90
15355;DHT22;7777;52.254;9.618;2022-10-16T03:14:27;13.50;99.90
15355;DHT22;7777;52.254;9.618;2022-10-16T03:16:53;13.50;99.90
15355;DHT22;7777;52.254;9.618;2022-10-16T03:19:19;13.40;99.90
15355;DHT22;7777;52.254;9.618;2022-10-16T03:21:45;13.40;99.90
15355;DHT22;7777;52.254;9.618;2022-10-16T03:24:11;13.40;99.90
15355;DHT22;7777;52.254;9.618;2022-10-16T03:26:37;13.30;99.90
15355;DHT22;7777;52.254;9.618;2022-10-16T03:29:03;13.30;99.90
15355;DHT22;7777;52.254;9.618;2022-10-16T03:31:29;13.30;99.90
15355;DHT22;7777;52.254;9.618;2022-10-16T03:33:56;13.30;99.90
15355;DHT22;7777;52.254;9.618;2022-10-16T03:36:22;13.30;99.90
15355;DHT22;7777;52.254;9.618;2022-10-16T03:38:48;13.20;99.90
15355;DHT22;7777;52.254;9.618;2022-10-16T03:41:13;13.20;99.90
15355;DHT22;7777;52.254;9.618;2022-10-16T03:43:39;13.20;99.90
15355;DHT22;7777;52.254;9.618;2022-10-16T03:46:05;13.20;99.90
15355;DHT22;7777;52.254;9.618;2022-10-16T03:48:31;13.20;99.90
15355;DHT22;7777;52.254;9.618;2022-10-16T03:50:57;13.20;99.90
15355;DHT22;7777;52.254;9.618;2022-10-16T03:53:24;13.20;99.90
15355;DHT22;7777;52.254;9.618;2022-10-16T03:55:50;13.10;99.90
15355;DHT22;7777;52.254;9.618;2022-10-16T03:58:16;13.10;99.90
15355;DHT22;7777;52.254;9.618;2022-10-16T04:00:43;13.10;99.90
15355;DHT22;7777;52.254;9.618;2022-10-16T04:03:10;13.10;99.90
15355;DHT22;7777;52.254;9.618;2022-10-16T04:05:37;13.10;99.90
15355;DHT22;7777;52.254;9.618;2022-10-16T04:08:03;13.00;99.90
15355;DHT22;7777;52.254;9.618;2022-10-16T04:10:28;13.00;99.90
15355;DHT22;7777;52.254;9.618;2022-10-16T04:12:54;13.00;99.90
15355;DHT22;7777;52.254;9.618;2022-10-16T04:15:24;13.00;99.90
15355;DHT22;7777;52.254;9.618;2022-10-16T04:17:51;12.90;99.90
15355;DHT22;7777;52.254;9.618;2022-10-16T04:20:17;12.90;99.90
15355;DHT22;7777;52.254;9.618;2022-10-16T04:22:44;12.90;99.90
15355;DHT22;7777;52.254;9.618;2022-10-16T04:25:10;12.90;99.90
15355;DHT22;7777;52.254;9.618;2022-10-16T04:27:37;12.90;99.90
15355;DHT22;7777;52.254;9.618;2022-10-16T04:30:03;12.90;99.90
15355;DHT22;7777;52.254;9.618;2022-10-16T04:32:30;12.90;99.90
15355;DHT22;7777;52.254;9.618;2022-10-16T04:34:56;12.80;99.90
15355;DHT22;7777;52.254;9.618;2022-10-16T04:37:26;12.90;99.90
15355;DHT22;7777;52.254;9.618;2022-10-16T04:39:53;12.90;99.90
15355;DHT22;7777;52.254;9.618;2022-10-16T04:42:20;12.80;99.90
15355;DHT22;7777;52.254;9.618;2022-10-16T04:44:46;12.90;99.90
15355;DHT22;7777;52.254;9.618;2022-10-16T04:47:12;12.90;99.90
15355;DHT22;7777;52.254;9.618;2022-10-16T04:49:38;12.90;99.90
15355;DHT22;7777;52.254;9.618;2022-10-16T04:52:04;12.90;99.90
15355;DHT22;7777;52.254;9.618;2022-10-16T04:54:30;12.90;99.90
15355;DHT22;7777;52.254;9.618;2022-10-16T04:56:56;12.90;99.90
15355;DHT22;7777;52.254;9.618;2022-10-16T04:59:22;12.80;99.90
15355;DHT22;7777;52.254;9.618;2022-10-16T05:01:48;12.90;99.90
15355;DHT22;7777;52.254;9.618;2022-10-16T05:04:14;12.90;99.90
15355;DHT22;7777;52.254;9.618;2022-10-16T05:06:41;12.90;99.90
15355;DHT22;7777;52.254;9.618;2022-10-16T05:09:07;12.90;99.90
15355;DHT22;7777;52.254;9.618;2022-10-16T05:11:33;12.80;99.90
15355;DHT22;7777;52.254;9.618;2022-10-16T05:13:59;12.80;99.90
15355;DHT22;7777;52.254;9.618;2022-10-16T05:16:26;12.80;99.90
15355;DHT22;7777;52.254;9.618;2022-10-16T05:18:52;12.80;99.90
15355;DHT22;7777;52.254;9.618;2022-10-16T05:21:18;12.80;99.90
15355;DHT22;7777;52.254;9.618;2022-10-16T05:23:44;12.80;99.90
15355;DHT22;7777;52.254;9.618;2022-10-16T05:26:10;12.80;99.90
15355;DHT22;7777;52.254;9.618;2022-10-16T05:28:36;12.80;99.90
15355;DHT22;7777;52.254;9.618;2022-10-16T05:31:09;12.80;99.90
15355;DHT22;7777;52.254;9.618;2022-10-16T05:33:35;12.80;99.90
15355;DHT22;7777;52.254;9.618;2022-10-16T05:36:05;12.80;99.90
15355;DHT22;7777;52.254;9.618;2022-10-16T05:38:37;12.80;99.90
15355;DHT22;7777;52.254;9.618;2022-10-16T05:41:04;12.80;99.90
15355;DHT22;7777;52.254;9.618;2022-10-16T05:43:31;12.80;99.90
15355;DHT22;7777;52.254;9.618;2022-10-16T05:46:02;12.70;99.90
15355;DHT22;7777;52.254;9.618;2022-10-16T05:48:30;12.70;99.90
15355;DHT22;7777;52.254;9.618;2022-10-16T05:51:04;12.70;99.90
15355;DHT22;7777;52.254;9.618;2022-10-16T05:53:34;12.70;99.90
15355;DHT22;7777;52.254;9.618;2022-10-16T05:56:01;12.70;99.90
15355;DHT22;7777;52.254;9.618;2022-10-16T05:58:34;12.60;99.90
15355;DHT22;7777;52.254;9.618;2022-10-16T06:01:04;12.60;99.90
15355;DHT22;7777;52.254;9.618;2022-10-16T06:03:32;12.60;99.90
15355;DHT22;7777;52.254;9.618;2022-10-16T06:05:59;12.60;99.90
15355;DHT22;7777;52.254;9.618;2022-10-16T06:08:25;12.60;99.90
15355;DHT22;7777;52.254;9.618;2022-10-16T06:11:04;12.60;99.90
15355;DHT22;7777;52.254;9.618;2022-10-16T06:13:31;12.60;99.90
15355;DHT22;7777;52.254;9.618;2022-10-16T06:15:58;12.60;99.90
15355;DHT22;7777;52.254;9.618;2022-10-16T06:18:26;12.60;99.90
15355;DHT22;7777;52.254;9.618;2022-10-16T06:20:53;12.60;99.90
15355;DHT22;7777;52.254;9.618;2022-10-16T06:23:19;12.60;99.90
15355;DHT22;7777;52.254;9.618;2022-10-16T06:25:44;12.60;99.90
15355;DHT22;7777;52.254;9.618;2022-10-16T06:28:10;12.60;99.90
15355;DHT22;7777;52.254;9.618;2022-10-16T06:30:36;12.60;99.90
15355;DHT22;7777;52.254;9.618;2022-10-16T06:33:01;12.60;99.90
15355;DHT22;7777;52.254;9.618;2022-10-16T06:35:27;12.60;99.90
15355;DHT22;7777;52.254;9.618;2022-10-16T06:37:54;12.70;99.90
15355;DHT22;7777;52.254;9.618;2022-10-16T06:40:20;12.70;99.90
15355;DHT22;7777;52.254;9.618;2022-10-16T06:42:46;12.70;99.90
15355;DHT22;7777;52.254;9.618;2022-10-16T06:45:11;12.70;99.90
15355;DHT22;7777;52.254;9.618;2022-10-16T06:47:38;12.70;99.90
15355;DHT22;7777;52.254;9.618;2022-10-16T06:50:04;12.70;99.90
15355;DHT22;7777;52.254;9.618;2022-10-16T06:52:32;12.70;99.90
15355;DHT22;7777;52.254;9.618;2022-10-16T06:54:59;12.80;99.90
15355;DHT22;7777;52.254;9.618;2022-10-16T06:57:25;12.80;99.90
15355;DHT22;7777;52.254;9.618;2022-10-16T06:59:51;12.80;99.90
15355;DHT22;7777;52.254;9.618;2022-10-16T07:02:17;12.80;99.90
15355;DHT22;7777;52.254;9.618;2022-10-16T07:04:42;12.80;99.90
15355;DHT22;7777;52.254;9.618;2022-10-16T07:07:08;12.80;99.90
15355;DHT22;7777;52.254;9.618;2022-10-16T07:09:34;12.80;99.90
15355;DHT22;7777;52.254;9.618;2022-10-16T07:11:59;12.90;99.90
15355;DHT22;7777;52.254;9.618;2022-10-16T07:14:25;12.90;99.90
15355;DHT22;7777;52.254;9.618;2022-10-16T07:16:51;13.00;99.90
15355;DHT22;7777;52.254;9.618;2022-10-16T07:19:17;13.00;99.90
15355;DHT22;7777;52.254;9.618;2022-10-16T07:21:44;13.00;99.90
15355;DHT22;7777;52.254;9.618;2022-10-16T07:24:16;13.10;99.90
15355;DHT22;7777;52.254;9.618;2022-10-16T07:26:44;13.20;99.90
15355;DHT22;7777;52.254;9.618;2022-10-16T07:29:17;13.20;99.90
15355;DHT22;7777;52.254;9.618;2022-10-16T07:31:45;13.30;99.90
15355;DHT22;7777;52.254;9.618;2022-10-16T07:34:13;13.40;99.90
15355;DHT22;7777;52.254;9.618;2022-10-16T07:36:39;13.40;99.90
15355;DHT22;7777;52.254;9.618;2022-10-16T07:39:05;13.40;99.90
15355;DHT22;7777;52.254;9.618;2022-10-16T07:41:32;13.50;99.90
15355;DHT22;7777;52.254;9.618;2022-10-16T07:43:59;13.60;99.90
15355;DHT22;7777;52.254;9.618;2022-10-16T07:46:26;13.60;99.90
15355;DHT22;7777;52.254;9.618;2022-10-16T07:48:52;13.70;99.90
15355;DHT22;7777;52.254;9.618;2022-10-16T07:51:20;13.70;99.90
15355;DHT22;7777;52.254;9.618;2022-10-16T07:53:48;13.80;99.90
15355;DHT22;7777;52.254;9.618;2022-10-16T07:56:15;13.80;99.90
15355;DHT22;7777;52.254;9.618;2022-10-16T07:58:41;13.90;99.90
15355;DHT22;7777;52.254;9.618;2022-10-16T08:01:09;14.00;99.90
15355;DHT22;7777;52.254;9.618;2022-10-16T08:03:37;14.10;99.90
15355;DHT22;7777;52.254;9.618;2022-10-16T08:06:03;14.10;99.90
15355;DHT22;7777;52.254;9.618;2022-10-16T08:08:30;14.20;99.90
15355;DHT22;7777;52.254;9.618;2022-10-16T08:10:56;14.20;99.90
15355;DHT22;7777;52.254;9.618;2022-10-16T08:13:22;14.30;99.90
15355;DHT22;7777;52.254;9.618;2022-10-16T08:15:47;14.40;99.90
15355;DHT22;7777;52.254;9.618;2022-10-16T08:18:15;14.40;99.90
15355;DHT22;7777;52.254;9.618;2022-10-16T08:20:42;14.50;99.90
15355;DHT22;7777;52.254;9.618;2022-10-16T08:23:10;14.60;99.90
15355;DHT22;7777;52.254;9.618;2022-10-16T08:25:37;14.70;99.90
15355;DHT22;7777;52.254;9.618;2022-10-16T08:28:04;14.70;99.90
15355;DHT22;7777;52.254;9.618;2022-10-16T08:30:34;14.80;99.90
15355;DHT22;7777;52.254;9.618;2022-10-16T08:33:01;14.80;99.90
15355;DHT22;7777;52.254;9.618;2022-10-16T08:35:27;14.90;99.90
15355;DHT22;7777;52.254;9.618;2022-10-16T08:37:53;14.90;99.90
15355;DHT22;7777;52.254;9.618;2022-10-16T08:40:24;15.00;99.90
15355;DHT22;7777;52.254;9.618;2022-10-16T08:43:06;15.00;99.90
15355;DHT22;7777;52.254;9.618;2022-10-16T08:51:04;15.20;99.90
15355;DHT22;7777;52.254;9.618;2022-10-16T08:53:49;15.20;99.90
15355;DHT22;7777;52.254;9.618;2022-10-16T08:56:18;15.30;99.90
15355;DHT22;7777;52.254;9.618;2022-10-16T08:58:46;15.30;99.90
15355;DHT22;7777;52.254;9.618;2022-10-16T09:01:14;15.30;99.90
15355;DHT22;7777;52.254;9.618;2022-10-16T09:06:32;15.40;99.90
15355;DHT22;7777;52.254;9.618;2022-10-16T09:20:25;15.60;99.90
15355;DHT22;7777;52.254;9.618;2022-10-16T09:23:27;15.70;99.90
15355;DHT22;7777;52.254;9.618;2022-10-16T09:25:55;15.70;99.90
15355;DHT22;7777;52.254;9.618;2022-10-16T09:28:21;15.80;99.90
15355;DHT22;7777;52.254;9.618;2022-10-16T09:30:47;15.80;99.90
15355;DHT22;7777;52.254;9.618;2022-10-16T09:33:19;15.90;99.90
15355;DHT22;7777;52.254;9.618;2022-10-16T09:35:49;16.00;99.90
15355;DHT22;7777;52.254;9.618;2022-10-16T09:38:25;16.00;99.90
15355;DHT22;7777;52.254;9.618;2022-10-16T09:40:54;16.10;99.90
15355;DHT22;7777;52.254;9.618;2022-10-16T09:43:42;16.20;99.90
15355;DHT22;7777;52.254;9.618;2022-10-16T09:46:25;16.20;99.90
15355;DHT22;7777;52.254;9.618;2022-10-16T09:48:53;16.30;99.90
15355;DHT22;7777;52.254;9.618;2022-10-16T09:51:29;16.40;99.90
15355;DHT22;7777;52.254;9.618;2022-10-16T09:56:35;16.50;99.90
15355;DHT22;7777;52.254;9.618;2022-10-16T09:59:10;16.60;99.90
15355;DHT22;7777;52.254;9.618;2022-10-16T10:01:38;16.70;99.90
15355;DHT22;7777;52.254;9.618;2022-10-16T10:04:06;16.80;99.90
15355;DHT22;7777;52.254;9.618;2022-10-16T10:06:41;16.80;99.90
15355;DHT22;7777;52.254;9.618;2022-10-16T10:09:24;17.00;99.90
15355;DHT22;7777;52.254;9.618;2022-10-16T10:12:03;17.00;99.90
15355;DHT22;7777;52.254;9.618;2022-10-16T10:17:26;17.30;99.90
15355;DHT22;7777;52.254;9.618;2022-10-16T10:20:35;17.40;99.90
15355;DHT22;7777;52.254;9.618;2022-10-16T10:23:23;17.60;99.90
15355;DHT22;7777;52.254;9.618;2022-10-16T10:26:11;17.70;99.90
15355;DHT22;7777;52.254;9.618;2022-10-16T10:29:10;17.80;99.90
15355;DHT22;7777;52.254;9.618;2022-10-16T10:31:53;18.00;99.90
15355;DHT22;7777;52.254;9.618;2022-10-16T10:55:38;18.80;99.90
15355;DHT22;7777;52.254;9.618;2022-10-16T11:01:47;18.90;99.90
15355;DHT22;7777;52.254;9.618;2022-10-16T11:07:31;19.00;99.90
15355;DHT22;7777;52.254;9.618;2022-10-16T11:10:20;19.00;99.90
15355;DHT22;7777;52.254;9.618;2022-10-16T11:12:52;19.00;99.90
15355;DHT22;7777;52.254;9.618;2022-10-16T11:18:01;19.00;99.90
15355;DHT22;7777;52.254;9.618;2022-10-16T11:20:40;19.00;99.90
15355;DHT22;7777;52.254;9.618;2022-10-16T11:23:38;19.10;99.90
15355;DHT22;7777;52.254;9.618;2022-10-16T11:26:16;19.10;99.90
15355;DHT22;7777;52.254;9.618;2022-10-16T11:28:51;19.10;99.90
15355;DHT22;7777;52.254;9.618;2022-10-16T11:31:41;19.10;99.90
15355;DHT22;7777;52.254;9.618;2022-10-16T11:34:29;19.10;99.90
15355;DHT22;7777;52.254;9.618;2022-10-16T11:39:46;19.00;99.90
15355;DHT22;7777;52.254;9.618;2022-10-16T11:42:28;19.00;99.90
15355;DHT22;7777;52.254;9.618;2022-10-16T11:51:21;18.90;99.90
15355;DHT22;7777;52.254;9.618;2022-10-16T11:54:08;18.90;99.90
15355;DHT22;7777;52.254;9.618;2022-10-16T11:56:45;18.90;99.90
15355;DHT22;7777;52.254;9.618;2022-10-16T11:59:27;18.90;99.90
15355;DHT22;7777;52.254;9.618;2022-10-16T12:05:40;18.90;99.90
15355;DHT22;7777;52.254;9.618;2022-10-16T12:08:27;18.90;99.90
15355;DHT22;7777;52.254;9.618;2022-10-16T12:10:54;18.90;99.90
15355;DHT22;7777;52.254;9.618;2022-10-16T12:13:38;18.90;99.90
15355;DHT22;7777;52.254;9.618;2022-10-16T12:16:19;18.90;99.90
15355;DHT22;7777;52.254;9.618;2022-10-16T12:18:47;19.00;99.90
15355;DHT22;7777;52.254;9.618;2022-10-16T12:21:15;19.00;99.90
15355;DHT22;7777;52.254;9.618;2022-10-16T12:23:54;19.10;99.90
15355;DHT22;7777;52.254;9.618;2022-10-16T12:26:28;19.10;99.90
15355;DHT22;7777;52.254;9.618;2022-10-16T12:31:46;19.20;99.90
15355;DHT22;7777;52.254;9.618;2022-10-16T12:34:29;19.20;99.90
15355;DHT22;7777;52.254;9.618;2022-10-16T12:37:22;19.20;99.90
15355;DHT22;7777;52.254;9.618;2022-10-16T12:39:52;19.20;99.90
15355;DHT22;7777;52.254;9.618;2022-10-16T12:42:37;19.20;99.90
15355;DHT22;7777;52.254;9.618;2022-10-16T12:45:23;19.30;99.90
15355;DHT22;7777;52.254;9.618;2022-10-16T12:47:58;19.50;99.90
15355;DHT22;7777;52.254;9.618;2022-10-16T12:50:32;19.60;99.90
15355;DHT22;7777;52.254;9.618;2022-10-16T12:53:02;19.70;99.90
15355;DHT22;7777;52.254;9.618;2022-10-16T12:55:56;19.70;99.90
15355;DHT22;7777;52.254;9.618;2022-10-16T12:58:38;19.90;99.90
15355;DHT22;7777;52.254;9.618;2022-10-16T13:01:23;20.10;99.90
15355;DHT22;7777;52.254;9.618;2022-10-16T13:03:58;20.10;99.90
15355;DHT22;7777;52.254;9.618;2022-10-16T13:06:57;20.10;99.90
15355;DHT22;7777;52.254;9.618;2022-10-16T13:29:32;19.80;99.60
15355;DHT22;7777;52.254;9.618;2022-10-16T13:32:00;19.80;99.90
15355;DHT22;7777;52.254;9.618;2022-10-16T13:34:32;19.80;99.90
15355;DHT22;7777;52.254;9.618;2022-10-16T13:36:58;19.70;99.70
15355;DHT22;7777;52.254;9.618;2022-10-16T13:39:29;19.70;99.90
15355;DHT22;7777;52.254;9.618;2022-10-16T13:42:11;19.70;99.90
15355;DHT22;7777;52.254;9.618;2022-10-16T13:44:51;19.70;99.90
15355;DHT22;7777;52.254;9.618;2022-10-16T13:47:23;19.60;99.90
15355;DHT22;7777;52.254;9.618;2022-10-16T13:50:19;19.60;99.90
15355;DHT22;7777;52.254;9.618;2022-10-16T13:52:45;19.60;99.90
15355;DHT22;7777;52.254;9.618;2022-10-16T13:55:16;19.60;99.50
15355;DHT22;7777;52.254;9.618;2022-10-16T13:57:43;19.60;99.90
15355;DHT22;7777;52.254;9.618;2022-10-16T14:00:23;19.60;99.90
15355;DHT22;7777;52.254;9.618;2022-10-16T14:03:01;19.60;99.90
15355;DHT22;7777;52.254;9.618;2022-10-16T14:05:29;19.60;99.90
15355;DHT22;7777;52.254;9.618;2022-10-16T14:07:56;19.60;99.90
15355;DHT22;7777;52.254;9.618;2022-10-16T14:10:28;19.60;99.90
15355;DHT22;7777;52.254;9.618;2022-10-16T14:13:03;19.60;99.90
15355;DHT22;7777;52.254;9.618;2022-10-16T14:15:32;19.60;99.90
15355;DHT22;7777;52.254;9.618;2022-10-16T14:17:59;19.60;99.90
15355;DHT22;7777;52.254;9.618;2022-10-16T14:20:30;19.60;99.90
15355;DHT22;7777;52.254;9.618;2022-10-16T14:25:31;19.60;99.90
15355;DHT22;7777;52.254;9.618;2022-10-16T14:30:34;19.60;99.90
15355;DHT22;7777;52.254;9.618;2022-10-16T14:33:18;19.60;99.90
15355;DHT22;7777;52.254;9.618;2022-10-16T14:36:05;19.60;99.90
15355;DHT22;7777;52.254;9.618;2022-10-16T14:38:38;19.60;99.90
15355;DHT22;7777;52.254;9.618;2022-10-16T14:41:05;19.60;99.90
15355;DHT22;7777;52.254;9.618;2022-10-16T14:43:37;19.60;99.90
15355;DHT22;7777;52.254;9.618;2022-10-16T14:46:21;19.60;99.90
15355;DHT22;7777;52.254;9.618;2022-10-16T14:48:58;19.60;99.90
15355;DHT22;7777;52.254;9.618;2022-10-16T14:51:30;19.60;99.90
15355;DHT22;7777;52.254;9.618;2022-10-16T14:53:56;19.60;99.90
15355;DHT22;7777;52.254;9.618;2022-10-16T14:56:24;19.50;99.50
15355;DHT22;7777;52.254;9.618;2022-10-16T14:58:52;19.50;99.90
15355;DHT22;7777;52.254;9.618;2022-10-16T15:01:18;19.50;99.70
15355;DHT22;7777;52.254;9.618;2022-10-16T15:03:44;19.50;99.90
15355;DHT22;7777;52.254;9.618;2022-10-16T15:06:16;19.50;99.90
15355;DHT22;7777;52.254;9.618;2022-10-16T15:08:42;19.40;99.90
15355;DHT22;7777;52.254;9.618;2022-10-16T15:11:16;19.40;99.90
15355;DHT22;7777;52.254;9.618;2022-10-16T15:13:42;19.40;99.90
15355;DHT22;7777;52.254;9.618;2022-10-16T15:16:13;19.40;99.90
15355;DHT22;7777;52.254;9.618;2022-10-16T15:18:40;19.30;99.90
15355;DHT22;7777;52.254;9.618;2022-10-16T15:21:06;19.30;99.90
15355;DHT22;7777;52.254;9.618;2022-10-16T15:23:32;19.20;99.90
15355;DHT22;7777;52.254;9.618;2022-10-16T15:25:58;19.20;99.90
15355;DHT22;7777;52.254;9.618;2022-10-16T15:28:25;19.20;99.90
15355;DHT22;7777;52.254;9.618;2022-10-16T15:30:53;19.10;99.90
15355;DHT22;7777;52.254;9.618;2022-10-16T15:33:23;19.00;99.90
15355;DHT22;7777;52.254;9.618;2022-10-16T15:35:52;19.00;99.90
15355;DHT22;7777;52.254;9.618;2022-10-16T15:38:20;18.90;99.90
15355;DHT22;7777;52.254;9.618;2022-10-16T15:40:47;18.80;99.90
15355;DHT22;7777;52.254;9.618;2022-10-16T15:43:13;18.70;99.90
15355;DHT22;7777;52.254;9.618;2022-10-16T15:45:39;18.60;99.90
15355;DHT22;7777;52.254;9.618;2022-10-16T15:48:05;18.50;99.90
15355;DHT22;7777;52.254;9.618;2022-10-16T15:50:32;18.50;99.90
15355;DHT22;7777;52.254;9.618;2022-10-16T15:52:58;18.40;99.90
15355;DHT22;7777;52.254;9.618;2022-10-16T15:55:23;18.40;99.90
15355;DHT22;7777;52.254;9.618;2022-10-16T15:57:49;18.20;99.90
15355;DHT22;7777;52.254;9.618;2022-10-16T16:00:17;18.20;99.90
15355;DHT22;7777;52.254;9.618;2022-10-16T16:02:51;18.10;99.90
15355;DHT22;7777;52.254;9.618;2022-10-16T16:05:20;18.10;99.90
15355;DHT22;7777;52.254;9.618;2022-10-16T16:07:46;18.00;99.90
15355;DHT22;7777;52.254;9.618;2022-10-16T16:10:12;17.90;99.90
15355;DHT22;7777;52.254;9.618;2022-10-16T16:12:38;17.80;99.90
15355;DHT22;7777;52.254;9.618;2022-10-16T16:15:05;17.80;99.90
15355;DHT22;7777;52.254;9.618;2022-10-16T16:17:33;17.70;99.90
15355;DHT22;7777;52.254;9.618;2022-10-16T16:19:59;17.70;99.90
15355;DHT22;7777;52.254;9.618;2022-10-16T16:22:25;17.60;99.90
15355;DHT22;7777;52.254;9.618;2022-10-16T16:24:51;17.50;99.90
15355;DHT22;7777;52.254;9.618;2022-10-16T16:27:17;17.40;99.90
15355;DHT22;7777;52.254;9.618;2022-10-16T16:29:45;17.30;99.90
15355;DHT22;7777;52.254;9.618;2022-10-16T16:32:11;17.30;99.90
15355;DHT22;7777;52.254;9.618;2022-10-16T16:34:36;17.10;99.90
15355;DHT22;7777;52.254;9.618;2022-10-16T16:37:02;17.10;99.90
15355;DHT22;7777;52.254;9.618;2022-10-16T16:39:28;16.90;99.90
15355;DHT22;7777;52.254;9.618;2022-10-16T16:41:56;16.90;99.90
15355;DHT22;7777;52.254;9.618;2022-10-16T16:44:23;16.70;99.90
15355;DHT22;7777;52.254;9.618;2022-10-16T16:46:50;16.60;99.90
15355;DHT22;7777;52.254;9.618;2022-10-16T16:49:17;16.50;99.90
15355;DHT22;7777;52.254;9.618;2022-10-16T16:51:43;16.50;99.90
15355;DHT22;7777;52.254;9.618;2022-10-16T16:54:10;16.40;99.90
15355;DHT22;7777;52.254;9.618;2022-10-16T16:56:37;16.40;99.90
15355;DHT22;7777;52.254;9.618;2022-10-16T16:59:02;16.30;99.90
15355;DHT22;7777;52.254;9.618;2022-10-16T17:01:29;16.30;99.90
15355;DHT22;7777;52.254;9.618;2022-10-16T17:03:57;16.20;99.90
15355;DHT22;7777;52.254;9.618;2022-10-16T17:06:26;16.20;99.90
15355;DHT22;7777;52.254;9.618;2022-10-16T17:08:55;16.10;99.90
15355;DHT22;7777;52.254;9.618;2022-10-16T17:11:24;16.10;99.90
15355;DHT22;7777;52.254;9.618;2022-10-16T17:13:52;16.10;99.90
15355;DHT22;7777;52.254;9.618;2022-10-16T17:16:21;16.10;99.90
15355;DHT22;7777;52.254;9.618;2022-10-16T17:18:48;16.00;99.90
15355;DHT22;7777;52.254;9.618;2022-10-16T17:21:13;16.00;99.90
15355;DHT22;7777;52.254;9.618;2022-10-16T17:23:39;16.00;99.90
15355;DHT22;7777;52.254;9.618;2022-10-16T17:26:13;15.90;99.90
15355;DHT22;7777;52.254;9.618;2022-10-16T17:28:42;15.90;99.90
15355;DHT22;7777;52.254;9.618;2022-10-16T17:31:13;15.90;99.90
15355;DHT22;7777;52.254;9.618;2022-10-16T17:33:41;15.90;99.90
15355;DHT22;7777;52.254;9.618;2022-10-16T17:36:08;15.90;99.90
15355;DHT22;7777;52.254;9.618;2022-10-16T17:38:34;15.80;99.90
15355;DHT22;7777;52.254;9.618;2022-10-16T17:43:37;15.80;99.90
15355;DHT22;7777;52.254;9.618;2022-10-16T17:46:04;15.80;99.90
15355;DHT22;7777;52.254;9.618;2022-10-16T17:48:30;15.80;99.90
15355;DHT22;7777;52.254;9.618;2022-10-16T17:50:56;15.70;99.90
15355;DHT22;7777;52.254;9.618;2022-10-16T17:53:22;15.70;99.90
15355;DHT22;7777;52.254;9.618;2022-10-16T17:55:47;15.70;99.90
15355;DHT22;7777;52.254;9.618;2022-10-16T17:58:13;15.70;99.90
15355;DHT22;7777;52.254;9.618;2022-10-16T18:00:39;15.70;99.90
15355;DHT22;7777;52.254;9.618;2022-10-16T18:03:05;15.70;99.90
15355;DHT22;7777;52.254;9.618;2022-10-16T18:05:31;15.70;99.90
15355;DHT22;7777;52.254;9.618;2022-10-16T18:07:56;15.70;99.90
15355;DHT22;7777;52.254;9.618;2022-10-16T18:10:22;15.70;99.90
15355;DHT22;7777;52.254;9.618;2022-10-16T18:12:48;15.70;99.90
15355;DHT22;7777;52.254;9.618;2022-10-16T18:15:14;15.70;99.90
15355;DHT22;7777;52.254;9.618;2022-10-16T18:17:40;15.70;99.90
15355;DHT22;7777;52.254;9.618;2022-10-16T18:20:07;15.60;99.90